createdAt,value
2016-04-20T08:29:28.646Z,41.75
2016-04-20T08:30:28.633Z,44.41
2016-04-20T08:31:28.636Z,44.87
2016-04-20T08:32:28.623Z,45.7
2016-04-20T08:33:28.610Z,46.66
2016-04-20T08:34:28.613Z,47.58
2016-04-20T08:35:28.599Z,47.71
2016-04-20T08:36:28.602Z,45.53
2016-04-20T08:37:28.590Z,44.29
2016-04-20T08:38:28.576Z,42.02
2016-04-20T08:39:28.563Z,41.38
2016-04-20T08:40:28.566Z,41.83
2016-04-20T08:41:28.569Z,42.02
2016-04-20T08:42:28.603Z,40.47
2016-04-20T08:43:28.543Z,42.19
2016-04-20T08:44:28.546Z,43.03
2016-04-20T08:45:28.534Z,42.84
2016-04-20T08:46:28.536Z,41.55
2016-04-20T08:47:28.523Z,41.26
2016-04-20T08:48:28.510Z,41.81
2016-04-20T08:49:28.545Z,41.62
2016-04-20T08:50:28.500Z,38.49
2016-04-20T08:51:28.487Z,36.82
2016-04-20T08:52:28.552Z,36.82
2016-04-20T08:53:28.476Z,39.27
2016-04-20T08:54:28.479Z,40.2
2016-04-20T08:55:28.466Z,42.57
2016-04-20T08:56:28.453Z,43.13
2016-04-20T08:57:28.455Z,43.13
2016-04-20T08:58:28.444Z,44.34
2016-04-20T08:59:28.430Z,45.01
2016-04-20T09:00:28.433Z,45.97
2016-04-20T09:01:28.420Z,46.25
2016-04-20T09:02:28.422Z,46.44
2016-04-20T09:03:28.410Z,46.54
2016-04-20T09:04:28.412Z,46.63
2016-04-20T09:05:28.383Z,46.54
2016-04-20T09:06:28.385Z,44.63
2016-04-20T09:07:28.374Z,41.81
2016-04-20T09:08:28.360Z,40.3
2016-04-20T09:09:28.348Z,42.6
2016-04-20T09:10:28.366Z,43.36
2016-04-20T09:11:28.338Z,42.77
2016-04-20T09:12:28.340Z,43.53
2016-04-20T09:13:28.343Z,43.32
2016-04-20T09:14:28.315Z,44.37
2016-04-20T09:15:28.317Z,45.22
2016-04-20T09:16:28.304Z,45.1
2016-04-20T09:17:28.306Z,45.39
2016-04-20T09:18:28.293Z,44.74
2016-04-20T09:19:28.281Z,43.7
2016-04-20T09:20:28.284Z,41.69
2016-04-20T09:21:28.270Z,42.48
2016-04-20T09:22:28.100Z,41.55
2016-04-20T09:23:28.244Z,40.59
2016-04-20T09:24:28.247Z,40.57
2016-04-20T09:25:28.233Z,40.37
2016-04-20T09:26:28.221Z,40.47
2016-04-20T09:27:28.207Z,40.37
2016-04-20T09:28:28.226Z,40.64
2016-04-20T09:29:28.197Z,41.12
2016-04-20T09:30:28.185Z,40.86
2016-04-20T09:31:28.187Z,39.69
2016-04-20T09:32:28.174Z,40.45
2016-04-20T09:33:28.176Z,41.2
2016-04-20T09:34:28.164Z,40.36
2016-04-20T09:35:28.151Z,39.88
2016-04-20T09:36:28.137Z,38.96
2016-04-20T09:37:28.140Z,36.61
2016-04-20T09:38:28.142Z,35.29
2016-04-20T09:39:28.131Z,35.39
2016-04-20T09:40:28.117Z,34.06
2016-04-20T09:41:28.104Z,34.64
2016-04-20T09:42:28.092Z,34.93
2016-04-20T09:43:28.094Z,35.49
2016-04-20T09:44:28.081Z,36.06
2016-04-20T09:45:28.068Z,36.9
2016-04-20T09:46:28.071Z,38.05
2016-04-20T09:47:28.058Z,39.94
2016-04-20T09:48:28.061Z,40.78
2016-04-20T09:49:28.064Z,40.2
2016-04-20T09:50:28.035Z,40.47
2016-04-20T09:51:28.038Z,41.43
2016-04-20T09:52:28.040Z,41.14
2016-04-20T09:53:28.027Z,41.71
2016-04-20T09:54:28.014Z,40
2016-04-20T09:55:28.017Z,40.2
2016-04-20T09:56:28.004Z,36.12
2016-04-20T09:57:28.022Z,37.09
2016-04-20T09:58:27.979Z,36.23
2016-04-20T09:59:27.981Z,32.62
2016-04-20T10:00:27.968Z,33.01
2016-04-20T10:01:27.970Z,33.32
2016-04-20T10:02:27.957Z,33.03
2016-04-20T10:03:27.960Z,31.32
2016-04-20T10:04:27.947Z,30.67
2016-04-20T10:05:27.950Z,30.78
2016-04-20T10:06:27.953Z,30.68
2016-04-20T10:07:27.955Z,30.79
2016-04-20T10:08:28.145Z,30.41
2016-04-20T10:09:27.945Z,29.35
2016-04-20T10:10:27.932Z,30.22
2016-04-20T10:11:27.935Z,30.22
2016-04-20T10:12:27.922Z,29.93
2016-04-20T10:13:27.925Z,28.01
2016-04-20T10:14:27.912Z,28.39
2016-04-20T10:15:27.915Z,28.78
2016-04-20T10:16:27.917Z,29.35
2016-04-20T10:17:27.920Z,29.26
2016-04-20T10:18:27.908Z,29.75
2016-04-20T10:19:27.925Z,29.19
2016-04-20T10:20:27.897Z,28.33
2016-04-20T10:21:27.916Z,27.94
2016-04-20T10:22:27.902Z,28.05
2016-04-20T10:23:27.889Z,28.81
2016-04-20T10:24:27.892Z,28.42
2016-04-20T10:25:27.894Z,28.23
2016-04-20T10:26:27.897Z,29.77
2016-04-20T10:27:27.915Z,27.17
2016-04-20T10:28:27.887Z,26.51
2016-04-20T10:29:27.890Z,26.9
2016-04-20T10:30:27.893Z,25.18
2016-04-20T10:31:27.879Z,25.36
2016-04-20T10:32:27.898Z,27.45
2016-04-20T10:33:27.885Z,27.55
2016-04-20T10:34:27.888Z,27.83
2016-04-20T10:35:27.891Z,27.16
2016-04-20T10:36:27.893Z,28.7
2016-04-20T10:37:27.895Z,28.7
2016-04-20T10:38:27.898Z,28.03
2016-04-20T10:39:27.885Z,26.31
2016-04-20T10:40:27.903Z,26.6
2016-04-20T10:41:27.907Z,28.3
2016-04-20T10:42:27.893Z,29.56
2016-04-20T10:43:27.896Z,28.39
2016-04-20T10:44:27.898Z,29.91
2016-04-20T10:45:27.901Z,30.4
2016-04-20T10:46:27.904Z,28.59
2016-04-20T10:47:27.907Z,28.5
2016-04-20T10:48:27.909Z,26.78
2016-04-20T10:49:27.897Z,27.16
2016-04-20T10:50:27.914Z,27.06
2016-04-20T10:51:27.902Z,25.92
2016-04-20T10:52:27.905Z,26.71
2016-04-20T10:53:27.907Z,27.95
2016-04-20T10:54:27.910Z,28.92
2016-04-20T10:55:27.913Z,27.94
2016-04-20T10:56:27.916Z,27.17
2016-04-20T10:57:27.918Z,27.37
2016-04-20T10:58:27.905Z,26.42
2016-04-20T10:59:27.923Z,27.09
2016-04-20T11:00:27.926Z,23.07
2016-04-20T11:01:27.913Z,25.64
2016-04-20T11:02:27.932Z,28.86
2016-04-20T11:03:27.935Z,29.45
2016-04-20T11:04:27.937Z,29.56
2016-04-20T11:05:27.940Z,24.96
2016-04-20T11:06:27.942Z,25.17
2016-04-20T11:07:27.929Z,24.98
2016-04-20T11:08:27.932Z,24.03
2016-04-20T11:09:27.951Z,26.42
2016-04-20T11:10:27.968Z,25.18
2016-04-20T11:11:27.956Z,26.93
2016-04-20T11:12:27.959Z,24.24
2016-04-20T11:13:27.962Z,24.34
2016-04-20T11:14:27.979Z,21.94
2016-04-20T11:15:27.982Z,21.66
2016-04-20T11:16:27.984Z,22.03
2016-04-20T11:17:27.987Z,24.54
2016-04-20T11:18:27.990Z,26.86
2016-04-20T11:19:28.009Z,24.75
2016-04-20T11:20:28.356Z,23.03
2016-04-20T11:21:28.014Z,22.93
2016-04-20T11:22:29.361Z,22.64
2016-04-20T11:23:28.378Z,22.26
2016-04-20T11:24:28.038Z,21.97
2016-04-20T11:25:28.025Z,22.46
2016-04-20T11:26:28.043Z,22.17
2016-04-20T11:27:28.046Z,20.43
2016-04-20T11:28:28.048Z,20.43
2016-04-20T11:29:28.051Z,19.95
2016-04-20T11:30:28.054Z,22.45
2016-04-20T11:31:28.072Z,22.06
2016-04-20T11:32:28.075Z,21.4
2016-04-20T11:33:28.078Z,19.95
2016-04-20T11:34:28.112Z,18.5
2016-04-20T11:35:28.130Z,18.41
2016-04-20T11:36:28.117Z,19.95
2016-04-20T11:37:28.120Z,20.04
2016-04-20T11:38:28.123Z,20.43
2016-04-20T11:39:28.126Z,19.56
2016-04-20T11:40:28.143Z,18.7
2016-04-20T11:41:28.162Z,20.92
2016-04-20T11:42:28.164Z,20.45
2016-04-20T11:43:28.151Z,19.38
2016-04-20T11:44:28.169Z,21.22
2016-04-20T11:45:28.173Z,19.78
2016-04-20T11:46:28.175Z,19.49
2016-04-20T11:47:28.192Z,21.97
2016-04-20T11:48:28.196Z,20.63
2016-04-20T11:49:28.198Z,21.97
2016-04-20T11:50:28.139Z,22.08
2016-04-20T11:51:28.204Z,20.73
2016-04-20T11:52:28.206Z,22.08
2016-04-20T11:53:28.209Z,19.96
2016-04-20T11:54:28.212Z,21.12
2016-04-20T11:55:28.230Z,20.74
2016-04-20T11:56:28.233Z,20.74
2016-04-20T11:57:28.235Z,20.74
2016-04-20T11:58:28.254Z,20.07
2016-04-20T11:59:28.273Z,19.31
2016-04-20T12:00:28.260Z,19.31
2016-04-20T12:01:28.263Z,20.07
2016-04-20T12:02:28.280Z,20.54
2016-04-20T12:03:28.298Z,18.53
2016-04-20T12:04:28.270Z,19.98
2016-04-20T12:05:28.336Z,20.66
2016-04-20T12:06:28.291Z,19.98
2016-04-20T12:07:28.294Z,19.12
2016-04-20T12:08:28.593Z,19.42
2016-04-20T12:09:28.315Z,17.19
2016-04-20T12:10:28.301Z,17.76
2016-04-20T12:11:28.320Z,17.97
2016-04-20T12:12:28.324Z,17.1
2016-04-20T12:13:28.326Z,16.41
2016-04-20T12:14:28.329Z,18.73
2016-04-20T12:15:28.331Z,17.86
2016-04-20T12:16:28.364Z,19.5
2016-04-20T12:17:28.353Z,20.18
2016-04-20T12:18:28.356Z,19.02
2016-04-20T12:19:28.358Z,16.69
2016-04-20T12:20:28.486Z,18.97
2016-04-20T12:21:28.363Z,21.92
2016-04-20T12:22:28.366Z,21.44
2016-04-20T12:23:28.384Z,22.24
2016-04-20T12:24:28.386Z,20.61
2016-04-20T12:25:28.389Z,24.09
2016-04-20T12:26:28.391Z,20.92
2016-04-20T12:27:28.410Z,19.96
2016-04-20T12:28:28.413Z,19.2
2016-04-20T12:29:28.416Z,17.67
2016-04-20T12:30:28.418Z,18.26
2016-04-20T12:31:28.422Z,17.58
2016-04-20T12:32:28.423Z,17.1
2016-04-20T12:33:28.457Z,17.01
2016-04-20T12:34:28.429Z,17.58
2016-04-20T12:35:28.447Z,16.72
2016-04-20T12:36:28.450Z,16.52
2016-04-20T12:37:28.453Z,17.29
2016-04-20T12:38:28.455Z,16.33
2016-04-20T12:39:28.474Z,17.49
2016-04-20T12:40:28.461Z,19.49
2016-04-20T12:41:28.480Z,16.89
2016-04-20T12:42:28.482Z,16.03
2016-04-20T12:43:28.484Z,18.44
2016-04-20T12:44:28.534Z,17.85
2016-04-20T12:45:28.490Z,18.92
2016-04-20T12:46:28.493Z,18.25
2016-04-20T12:47:28.512Z,18.82
2016-04-20T12:48:28.357Z,19.7
2016-04-20T12:49:28.517Z,17.48
2016-04-20T12:50:28.519Z,17.19
2016-04-20T12:51:28.522Z,17.77
2016-04-20T12:52:28.525Z,18.54
2016-04-20T12:53:28.527Z,20.18
2016-04-20T12:54:28.545Z,19.4
2016-04-20T12:55:28.548Z,18.82
2016-04-20T12:56:28.551Z,17.66
2016-04-20T12:57:28.553Z,18.53
2016-04-20T12:58:28.556Z,19.21
2016-04-20T12:59:28.575Z,21.14
2016-04-20T13:00:28.577Z,18.26
2016-04-20T13:01:28.579Z,17.3
2016-04-20T13:02:28.582Z,17.3
2016-04-20T13:03:28.586Z,15.86
2016-04-20T13:04:28.588Z,17.1
2016-04-20T13:05:28.607Z,15.66
2016-04-20T13:06:28.593Z,14.12
2016-04-20T13:07:28.596Z,14.7
2016-04-20T13:08:28.615Z,17.69
2016-04-20T13:09:28.602Z,15.85
2016-04-20T13:10:28.620Z,17.68
2016-04-20T13:11:28.606Z,19.61
2016-04-20T13:12:28.656Z,17.19
2016-04-20T13:13:28.628Z,17
2016-04-20T13:14:28.631Z,17.49
2016-04-20T13:15:28.634Z,16.52
2016-04-20T13:16:28.636Z,17.11
2016-04-20T13:17:28.654Z,17.58
2016-04-20T13:18:28.642Z,15.74
2016-04-20T13:19:28.644Z,16.33
2016-04-20T13:20:28.678Z,18.71
2016-04-20T13:21:28.665Z,21.58
2016-04-20T13:22:28.667Z,20.62
2016-04-20T13:23:28.670Z,20.92
2016-04-20T13:24:28.672Z,18.99
2016-04-20T13:25:28.691Z,19.38
2016-04-20T13:26:28.678Z,17.95
2016-04-20T13:27:28.681Z,17.76
2016-04-20T13:28:28.684Z,17.09
2016-04-20T13:29:28.686Z,18.63
2016-04-20T13:30:28.689Z,18.25
2016-04-20T13:31:28.691Z,19.5
2016-04-20T13:32:28.695Z,19.59
2016-04-20T13:33:28.728Z,20.47
2016-04-20T13:34:28.716Z,18.44
2016-04-20T13:35:28.718Z,17.1
2016-04-20T13:36:28.721Z,18.53
2016-04-20T13:37:28.723Z,17.96
2016-04-20T13:38:28.727Z,17.56
2016-04-20T13:39:28.729Z,17.27
2016-04-20T13:40:28.732Z,18.73
2016-04-20T13:41:28.750Z,19.31
2016-04-20T13:42:28.752Z,18.24
2016-04-20T13:43:28.754Z,18.62
2016-04-20T13:44:28.743Z,19.4
2016-04-20T13:45:28.745Z,17
2016-04-20T13:46:28.748Z,18.45
2016-04-20T13:47:28.750Z,16.9
2016-04-20T13:48:28.754Z,19.43
2016-04-20T13:49:28.771Z,19.03
2016-04-20T13:50:28.759Z,17.1
2016-04-20T13:51:28.761Z,17.88
2016-04-20T13:52:28.780Z,18.95
2016-04-20T13:53:28.782Z,17.86
2016-04-20T13:54:28.769Z,18.91
2016-04-20T13:55:28.787Z,18.62
2016-04-20T13:56:28.790Z,16.31
2016-04-20T13:57:28.792Z,18.63
2016-04-20T13:58:28.859Z,19.1
2016-04-20T13:59:28.814Z,17.38
2016-04-20T14:00:28.801Z,17.27
2016-04-20T14:01:28.804Z,17.37
2016-04-20T14:02:28.806Z,17.18
2016-04-20T14:03:28.809Z,17.76
2016-04-20T14:04:28.811Z,19.59
2016-04-20T14:05:28.814Z,18.53
2016-04-20T14:06:28.816Z,16.7
2016-04-20T14:07:28.820Z,20.36
2016-04-20T14:08:29.026Z,17.84
2016-04-20T14:09:28.841Z,17.82
2016-04-20T14:10:28.844Z,19.86
2016-04-20T14:11:28.846Z,18.32
2016-04-20T14:12:28.833Z,17.84
2016-04-20T14:13:28.836Z,18.62
2016-04-20T14:14:28.839Z,16.39
2016-04-20T14:15:28.841Z,19.75
2016-04-20T14:16:28.843Z,20.72
2016-04-20T14:17:28.846Z,18.99
2016-04-20T14:18:28.834Z,19.38
2016-04-20T14:19:28.852Z,19.58
2016-04-20T14:20:28.855Z,18.82
2016-04-20T14:21:28.857Z,18.91
2016-04-20T14:22:28.846Z,17.76
2016-04-20T14:23:28.863Z,16.8
2016-04-20T14:24:28.866Z,16.41
2016-04-20T14:25:28.869Z,16.88
2016-04-20T14:26:28.872Z,18.6
2016-04-20T14:27:28.874Z,19.67
2016-04-20T14:28:28.862Z,19.38
2016-04-20T14:29:28.880Z,17.83
2016-04-20T14:30:28.883Z,16.49
2016-04-20T14:31:28.870Z,17.84
2016-04-20T14:32:28.872Z,17.84
2016-04-20T14:33:28.890Z,19.29
2016-04-20T14:34:28.878Z,18.32
2016-04-20T14:35:28.881Z,18.79
2016-04-20T14:36:28.898Z,18.7
2016-04-20T14:37:28.886Z,19.84
2016-04-20T14:38:28.889Z,18.4
2016-04-20T14:39:28.892Z,17.54
2016-04-20T14:40:28.894Z,19.38
2016-04-20T14:41:28.881Z,20.15
2016-04-20T14:42:28.884Z,18.03
2016-04-20T14:43:28.886Z,18.51
2016-04-20T14:44:28.889Z,20.53
2016-04-20T14:45:28.892Z,19.67
2016-04-20T14:46:28.926Z,20.64
2016-04-20T14:47:28.897Z,20.83
2016-04-20T14:48:28.900Z,20.43
2016-04-20T14:49:28.903Z,21.31
2016-04-20T14:50:28.905Z,19.68
2016-04-20T14:51:28.908Z,20.16
2016-04-20T14:52:29.285Z,18.7
2016-04-20T14:53:28.898Z,19.56
2016-04-20T14:54:28.901Z,22.73
2016-04-20T14:55:28.904Z,20.72
2016-04-20T14:56:28.906Z,20.83
2016-04-20T14:57:28.909Z,19.85
2016-04-20T14:58:28.912Z,19.45
2016-04-20T14:59:28.930Z,21.77
2016-04-20T15:00:28.917Z,20.7
2016-04-20T15:01:28.920Z,19.25
2016-04-20T15:02:28.906Z,21.07
2016-04-20T15:03:28.925Z,20.88
2016-04-20T15:04:28.911Z,19.82
2016-04-20T15:05:28.914Z,20.02
2016-04-20T15:06:28.948Z,20.31
2016-04-20T15:07:28.936Z,21.96
2016-04-20T15:08:28.923Z,20.43
2016-04-20T15:09:28.926Z,22.53
2016-04-20T15:10:28.912Z,21.86
2016-04-20T15:11:28.915Z,21.68
2016-04-20T15:12:28.917Z,20.43
2016-04-20T15:13:28.920Z,19.46
2016-04-20T15:14:28.922Z,20.14
2016-04-20T15:15:28.941Z,21.01
2016-04-20T15:16:28.913Z,20.72
2016-04-20T15:17:28.915Z,20.14
2016-04-20T15:18:28.918Z,20.04
2016-04-20T15:19:28.921Z,20.23
2016-04-20T15:20:28.924Z,20.81
2016-04-20T15:21:28.769Z,20.03
2016-04-20T15:22:28.913Z,20.91
2016-04-20T15:23:28.916Z,21.48
2016-04-20T15:24:28.918Z,22.15
2016-04-20T15:25:28.921Z,20.42
2016-04-20T15:26:28.924Z,21.2
2016-04-20T15:27:28.926Z,20.14
2016-04-20T15:28:28.946Z,20.53
2016-04-20T15:29:28.932Z,21.39
2016-04-20T15:30:28.919Z,20.81
2016-04-20T15:31:28.921Z,20.7
2016-04-20T15:32:28.909Z,19.26
2016-04-20T15:33:28.912Z,18.97
2016-04-20T15:34:28.914Z,19.26
2016-04-20T15:35:28.917Z,20.32
2016-04-20T15:36:28.955Z,20.13
2016-04-20T15:37:28.895Z,20.9
2016-04-20T15:38:28.898Z,20.03
2016-04-20T15:39:28.900Z,18.78
2016-04-20T15:40:28.904Z,19.84
2016-04-20T15:41:28.906Z,21
2016-04-20T15:42:28.894Z,21.08
2016-04-20T15:43:28.897Z,19.84
2016-04-20T15:44:28.884Z,20.03
2016-04-20T15:45:28.886Z,20.7
2016-04-20T15:46:28.889Z,21.37
2016-04-20T15:47:28.908Z,22.05
2016-04-20T15:48:28.880Z,21.95
2016-04-20T15:49:28.882Z,20.4
2016-04-20T15:50:28.885Z,20.79
2016-04-20T15:51:28.793Z,22.03
2016-04-20T15:52:28.874Z,24.24
2016-04-20T15:53:28.877Z,22.9
2016-04-20T15:54:28.863Z,22.32
2016-04-20T15:55:28.866Z,22.52
2016-04-20T15:56:28.868Z,22.71
2016-04-20T15:57:28.871Z,23.3
2016-04-20T15:58:28.896Z,22.32
2016-04-20T15:59:28.955Z,24.34
2016-04-20T16:00:28.985Z,22.71
2016-04-20T16:01:29.013Z,22.52
2016-04-20T16:02:29.057Z,21.84
2016-04-20T16:03:29.099Z,21.65
2016-04-20T16:04:29.020Z,21.55
2016-04-20T16:06:57.066Z,22.49
2016-04-20T16:07:57.066Z,24.03
2016-04-20T16:08:57.199Z,22.3
2016-04-20T16:09:57.083Z,22.2
2016-04-20T16:10:57.074Z,21.83
2016-04-20T16:11:57.099Z,24.43
2016-04-20T16:12:57.089Z,24.04
2016-04-20T16:13:57.079Z,24.33
2016-04-20T16:14:57.099Z,24.91
2016-04-20T16:15:57.089Z,22.5
2016-04-20T16:16:57.076Z,24.43
2016-04-20T16:17:57.081Z,24.43
2016-04-20T16:18:57.085Z,22.79
2016-04-20T16:19:57.072Z,22.69
2016-04-20T16:20:57.076Z,24.04
2016-04-20T16:21:57.064Z,24.52
2016-04-20T16:22:57.068Z,22.97
2016-04-20T16:23:57.070Z,24.69
2016-04-20T16:24:57.057Z,25.27
2016-04-20T16:25:57.060Z,24.98
2016-04-20T16:26:57.063Z,24.41
2016-04-20T16:27:57.066Z,25.18
2016-04-20T16:28:57.069Z,24.32
2016-04-20T16:29:57.056Z,24.43
2016-04-20T16:30:57.059Z,22.22
2016-04-20T16:31:57.077Z,22.12
2016-04-20T16:32:57.049Z,22.97
2016-04-20T16:33:57.035Z,22.69
2016-04-20T16:34:57.038Z,24.71
2016-04-20T16:35:57.026Z,22.42
2016-04-20T16:36:57.028Z,21.75
2016-04-20T16:37:57.031Z,22.69
2016-04-20T16:38:57.034Z,22.61
2016-04-20T16:39:57.021Z,20.88
2016-04-20T16:40:57.023Z,21.55
2016-04-20T16:41:57.010Z,22.42
2016-04-20T16:42:57.013Z,22.5
2016-04-20T16:43:57.000Z,24.23
2016-04-20T16:44:57.003Z,23.46
2016-04-20T16:45:57.006Z,22.69
2016-04-20T16:46:57.008Z,22.6
2016-04-20T16:47:56.995Z,22.59
2016-04-20T16:48:56.998Z,22.49
2016-04-20T16:49:57.001Z,24.21
2016-04-20T16:50:56.988Z,24.68
2016-04-20T16:51:56.990Z,25.35
2016-04-20T16:52:56.993Z,26.12
2016-04-20T16:53:56.980Z,26.12
2016-04-20T16:54:56.967Z,26.12
2016-04-20T16:55:56.970Z,27.08
2016-04-20T16:56:56.972Z,26.68
2016-04-20T16:57:56.960Z,25.05
2016-04-20T16:58:56.963Z,25.24
2016-04-20T16:59:56.966Z,25.32
2016-04-20T17:00:56.952Z,25.42
2016-04-20T17:01:56.955Z,26.09
2016-04-20T17:02:56.941Z,25.99
2016-04-20T17:03:56.788Z,26.48
2016-04-20T17:04:56.947Z,26.28
2016-04-20T17:05:56.778Z,27.53
2016-04-20T17:06:56.765Z,27.42
2016-04-20T17:07:56.783Z,28.28
2016-04-20T17:08:56.927Z,30.58
2016-04-20T17:09:56.913Z,28.86
2016-04-20T17:10:56.916Z,28.56
2016-04-20T17:11:56.904Z,29.52
2016-04-20T17:12:56.907Z,30.09
2016-04-20T17:13:56.924Z,29.13
2016-04-20T17:14:56.896Z,29.9
2016-04-20T17:15:56.899Z,29.52
2016-04-20T17:16:56.887Z,29.71
2016-04-20T17:17:56.935Z,29.61
2016-04-20T17:18:57.141Z,28.66
2016-04-20T17:19:56.878Z,30.38
2016-04-20T17:20:56.881Z,28.46
2016-04-20T17:21:56.884Z,30.18
2016-04-20T17:22:56.856Z,29.5
2016-04-20T17:23:56.858Z,30.65
2016-04-20T17:24:56.845Z,30.94
2016-04-20T17:25:56.848Z,30.84
2016-04-20T17:26:56.850Z,30.65
2016-04-20T17:27:56.836Z,30.84
2016-04-20T17:28:56.839Z,30.55
2016-04-20T17:29:56.828Z,30.75
2016-04-20T17:30:56.830Z,29.98
2016-04-20T17:31:56.816Z,29.69
2016-04-20T17:32:56.805Z,29.79
2016-04-20T17:33:56.822Z,29.02
2016-04-20T17:34:56.810Z,29.68
2016-04-20T17:35:56.813Z,31.21
2016-04-20T17:36:56.815Z,30.93
2016-04-20T17:37:56.849Z,30.54
2016-04-20T17:38:56.804Z,31.21
2016-04-20T17:39:56.776Z,31.21
2016-04-20T17:40:56.779Z,30.93
2016-04-20T17:41:56.766Z,31.29
2016-04-20T17:42:56.753Z,32.36
2016-04-20T17:43:56.755Z,31.67
2016-04-20T17:44:56.743Z,32.25
2016-04-20T17:45:56.746Z,31.87
2016-04-20T17:46:56.732Z,33.3
2016-04-20T17:47:56.720Z,31.47
2016-04-20T17:48:56.722Z,32.71
2016-04-20T17:49:56.710Z,33.19
2016-04-20T17:50:56.712Z,33.38
2016-04-20T17:51:56.731Z,34.14
2016-04-20T17:52:56.701Z,33.86
2016-04-20T17:54:00.070Z,34.13
2016-04-20T17:54:56.666Z,34.03
2016-04-20T17:55:56.668Z,34.51
2016-04-20T17:56:56.718Z,33.36
2016-04-20T17:57:56.659Z,34.13
2016-04-20T17:58:56.645Z,34.03
2016-04-20T17:59:56.632Z,34.8
2016-04-20T18:00:56.650Z,33.94
2016-04-20T18:01:56.466Z,33.84
2016-04-20T18:02:56.609Z,35.28
2016-04-20T18:03:56.596Z,36.8
2016-04-20T18:04:56.615Z,35.28
2016-04-20T18:05:56.586Z,35.85
2016-04-20T18:06:56.571Z,35.45
2016-04-20T18:07:56.573Z,35.16
2016-04-20T18:08:56.593Z,35.45
2016-04-20T18:09:56.548Z,35.06
2016-04-20T18:10:56.535Z,36.21
2016-04-20T18:11:56.523Z,36.5
2016-04-20T18:12:56.947Z,36.12
2016-04-20T18:13:56.496Z,36.5
2016-04-20T18:14:56.514Z,36.31
2016-04-20T18:15:56.502Z,36.21
2016-04-20T18:16:56.473Z,36.12
2016-04-20T18:17:56.465Z,36.21
2016-04-20T18:18:56.451Z,38.12
2016-04-20T18:19:56.453Z,37.05
2016-04-20T18:20:56.441Z,38.01
2016-04-20T18:21:56.464Z,37.34
2016-04-20T18:22:56.420Z,38.87
2016-04-20T18:23:56.407Z,39.35
2016-04-20T18:24:56.394Z,39.15
2016-04-20T18:25:56.380Z,38.68
2016-04-20T18:26:56.369Z,39.73
2016-04-20T18:27:56.355Z,39.14
2016-04-20T18:28:56.358Z,39.44
2016-04-20T18:29:56.345Z,39.92
2016-04-20T18:30:56.332Z,40
2016-04-20T18:31:56.210Z,40.57
2016-04-20T18:32:56.306Z,40.19
2016-04-20T18:33:56.293Z,40.47
2016-04-20T18:34:56.280Z,40.19
2016-04-20T18:35:56.283Z,40.76
2016-04-20T18:36:56.146Z,40.47
2016-04-20T18:37:56.257Z,41.52
2016-04-20T18:38:56.244Z,41.79
2016-04-20T18:39:56.232Z,42.17
2016-04-20T18:40:56.063Z,41.88
2016-04-20T18:41:56.205Z,41.6
2016-04-20T18:42:56.208Z,42.84
2016-04-20T18:43:56.195Z,42.36
2016-04-20T18:44:56.182Z,42.46
2016-04-20T18:45:56.169Z,43.03
2016-04-20T18:46:56.157Z,42.93
2016-04-20T18:47:56.143Z,43.13
2016-04-20T18:48:56.162Z,42.91
2016-04-20T18:49:56.117Z,43.1
2016-04-20T18:50:56.104Z,42.91
2016-04-20T18:51:56.106Z,43.68
2016-04-20T18:52:56.079Z,43.49
2016-04-20T18:53:56.081Z,43.58
2016-04-20T18:54:56.069Z,43.68
2016-04-20T18:55:56.040Z,44.15
2016-04-20T18:56:56.042Z,45.1
2016-04-20T18:57:56.030Z,45.1
2016-04-20T18:58:56.017Z,45.37
2016-04-20T18:59:56.222Z,45.84
2016-04-20T19:00:55.992Z,46.04
2016-04-20T19:01:55.978Z,45.75
2016-04-20T19:02:55.965Z,45.94
2016-04-20T19:03:55.952Z,46.13
2016-04-20T19:04:55.939Z,46.7
2016-04-20T19:05:55.927Z,46.7
2016-04-20T19:06:55.930Z,47.94
2016-04-20T19:07:55.899Z,48.13
2016-04-20T19:08:55.887Z,47.85
2016-04-20T19:09:55.874Z,47.47
2016-04-20T19:10:55.862Z,47.47
2016-04-20T19:11:55.848Z,48.02
2016-04-20T19:12:55.836Z,48.61
2016-04-20T19:13:55.823Z,48.78
2016-04-20T19:14:55.810Z,48.9
2016-04-20T19:15:55.813Z,48.8
2016-04-20T19:16:55.784Z,48.58
2016-04-20T19:17:55.801Z,48.11
2016-04-20T19:18:55.773Z,48.49
2016-04-20T19:19:55.761Z,47.25
2016-04-20T19:20:55.732Z,47.54
2016-04-20T19:21:55.720Z,47.44
2016-04-20T19:22:55.706Z,47.44
2016-04-20T19:23:55.693Z,47.73
2016-04-20T19:24:55.680Z,48.58
2016-04-20T19:25:55.730Z,48.11
2016-04-20T19:26:55.655Z,48.49
2016-04-20T19:27:55.658Z,48.78
2016-04-20T19:28:55.628Z,48.3
2016-04-20T19:29:55.631Z,48.49
2016-04-20T19:30:55.447Z,50.49
2016-04-20T19:31:55.589Z,49.35
2016-04-20T19:32:55.593Z,48.68
2016-04-20T19:33:55.408Z,49.54
2016-04-20T19:34:55.551Z,49.92
2016-04-20T19:35:55.569Z,50.3
2016-04-20T19:36:55.525Z,49.26
2016-04-20T19:37:55.512Z,50.09
2016-04-20T19:38:55.500Z,50.18
2016-04-20T19:39:55.502Z,50.09
2016-04-20T19:40:55.474Z,50.09
2016-04-20T19:41:55.477Z,50.37
2016-04-20T19:42:55.463Z,50.09
2016-04-20T19:43:55.451Z,50.85
2016-04-20T19:44:55.421Z,50.27
2016-04-20T19:45:55.409Z,50.46
2016-04-20T19:46:55.396Z,50.85
2016-04-20T19:47:55.383Z,50.85
2016-04-20T19:48:55.370Z,51.04
2016-04-20T19:49:55.357Z,50.85
2016-04-20T19:50:55.345Z,50.75
2016-04-20T19:51:55.362Z,50.85
2016-04-20T19:52:55.178Z,50.94
2016-04-20T19:53:55.305Z,50.94
2016-04-20T19:54:55.292Z,51.51
2016-04-20T19:55:55.279Z,51.14
2016-04-20T19:56:55.267Z,52.94
2016-04-20T19:57:55.253Z,51.99
2016-04-20T19:58:55.241Z,52.37
2016-04-20T19:59:55.228Z,52.37
2016-04-20T20:00:55.215Z,51.89
2016-04-20T20:01:55.186Z,51.42
2016-04-20T20:02:55.173Z,51.42
2016-04-20T20:03:55.175Z,51.51
2016-04-20T20:04:55.164Z,51.42
2016-04-20T20:05:55.150Z,51.49
2016-04-20T20:06:55.122Z,51.7
2016-04-20T20:07:55.108Z,52.15
2016-04-20T20:08:55.299Z,52.34
2016-04-20T20:09:55.129Z,52.06
2016-04-20T20:10:55.069Z,52.34
2016-04-20T20:11:55.058Z,52.15
2016-04-20T20:12:55.059Z,53.2
2016-04-20T20:13:55.031Z,52.63
2016-04-20T20:14:55.018Z,53.11
2016-04-20T20:15:55.005Z,53.3
2016-04-20T20:16:54.993Z,53.11
2016-04-20T20:17:54.979Z,53.01
2016-04-20T20:18:54.951Z,53.11
2016-04-20T20:19:54.954Z,54.35
2016-04-20T20:20:54.925Z,53.2
2016-04-20T20:21:54.922Z,53.3
2016-04-20T20:22:54.745Z,53.11
2016-04-20T20:23:54.936Z,53.11
2016-04-20T20:24:54.875Z,53.39
2016-04-20T20:25:54.909Z,52.63
2016-04-20T20:26:54.849Z,52.72
2016-04-20T20:27:54.837Z,53.2
2016-04-20T20:28:54.824Z,53.39
2016-04-20T20:29:54.810Z,53.2
2016-04-20T20:30:54.798Z,54.25
2016-04-20T20:31:54.785Z,53.3
2016-04-20T20:32:54.772Z,53.3
2016-04-20T20:33:54.743Z,53.3
2016-04-20T20:34:54.730Z,53.2
2016-04-20T20:35:54.733Z,54.35
2016-04-20T20:36:54.704Z,54.15
2016-04-20T20:37:54.692Z,53.39
2016-04-20T20:38:54.679Z,53.3
2016-04-20T20:39:54.665Z,54.44
2016-04-20T20:40:54.652Z,54.25
2016-04-20T20:41:54.640Z,53.39
2016-04-20T20:42:54.626Z,54.35
2016-04-20T20:43:54.598Z,54.25
2016-04-20T20:44:54.617Z,54.44
2016-04-20T20:45:54.587Z,54.35
2016-04-20T20:46:54.560Z,54.35
2016-04-20T20:47:54.562Z,54.03
2016-04-20T20:48:54.533Z,54.13
2016-04-20T20:49:54.521Z,54.6
2016-04-20T20:50:54.508Z,55.17
2016-04-20T20:51:54.494Z,54.98
2016-04-20T20:52:54.497Z,55.17
2016-04-20T20:53:54.470Z,55.08
2016-04-20T20:54:54.456Z,55.46
2016-04-20T20:55:54.443Z,55.46
2016-04-20T20:56:54.414Z,54.98
2016-04-20T20:57:54.417Z,55.55
2016-04-20T20:58:54.388Z,56.03
2016-04-20T20:59:54.376Z,56.22
2016-04-20T21:00:54.363Z,55.93
2016-04-20T21:01:54.382Z,56
2016-04-20T21:02:54.337Z,56.03
2016-04-20T21:03:54.326Z,56.12
2016-04-20T21:04:54.312Z,56.6
2016-04-20T21:05:54.284Z,56.48
2016-04-20T21:06:54.270Z,56.76
2016-04-20T21:07:54.258Z,56.51
2016-04-20T21:08:54.244Z,56.48
2016-04-20T21:09:54.231Z,56.57
2016-04-20T21:10:54.220Z,57.04
2016-04-20T21:11:54.205Z,56.76
2016-04-20T21:12:54.239Z,56.76
2016-04-20T21:13:54.195Z,56.76
2016-04-20T21:14:54.152Z,57.71
2016-04-20T21:15:54.155Z,57.62
2016-04-20T21:16:54.141Z,58.18
2016-04-20T21:17:54.113Z,57.9
2016-04-20T21:18:54.100Z,58.28
2016-04-20T21:19:54.086Z,58.28
2016-04-20T21:20:54.074Z,58.28
2016-04-20T21:21:54.045Z,58
2016-04-20T21:22:54.032Z,57.52
2016-04-20T21:23:54.035Z,57.62
2016-04-20T21:24:54.007Z,58
2016-04-20T21:25:53.993Z,57.43
2016-04-20T21:26:53.980Z,58.18